sensor_id;sensor_type;location;lat;lon;timestamp;temperature;humidity
19968;DHT22;10145;49.152;9.282;2023-03-01T00:02:17;-3.10;99.90
19968;DHT22;10145;49.152;9.282;2023-03-01T00:04:42;-3.20;99.90
19968;DHT22;10145;49.152;9.282;2023-03-01T00:07:08;-3.30;99.90
19968;DHT22;10145;49.152;9.282;2023-03-01T00:09:35;-3.20;99.90
19968;DHT22;10145;49.152;9.282;2023-03-01T00:12:00;-3.20;99.90
19968;DHT22;10145;49.152;9.282;2023-03-01T00:14:26;-3.20;99.90
19968;DHT22;10145;49.152;9.282;2023-03-01T00:16:51;-3.20;99.90
19968;DHT22;10145;49.152;9.282;2023-03-01T00:19:19;-3.30;99.90
19968;DHT22;10145;49.152;9.282;2023-03-01T00:21:45;-3.30;99.90
19968;DHT22;10145;49.152;9.282;2023-03-01T00:24:10;-3.20;99.90
19968;DHT22;10145;49.152;9.282;2023-03-01T00:26:36;-3.20;99.90
19968;DHT22;10145;49.152;9.282;2023-03-01T00:29:02;-3.10;99.90
19968;DHT22;10145;49.152;9.282;2023-03-01T00:31:30;-3.20;99.90
19968;DHT22;10145;49.152;9.282;2023-03-01T00:33:58;-3.20;99.90
19968;DHT22;10145;49.152;9.282;2023-03-01T00:36:29;-3.30;99.90
19968;DHT22;10145;49.152;9.282;2023-03-01T00:38:55;-3.30;99.90
19968;DHT22;10145;49.152;9.282;2023-03-01T00:41:21;-3.30;99.90
19968;DHT22;10145;49.152;9.282;2023-03-01T00:43:48;-3.30;99.90
19968;DHT22;10145;49.152;9.282;2023-03-01T00:46:17;-3.40;99.90
19968;DHT22;10145;49.152;9.282;2023-03-01T00:48:43;-3.40;99.90
19968;DHT22;10145;49.152;9.282;2023-03-01T00:51:12;-3.40;99.90
19968;DHT22;10145;49.152;9.282;2023-03-01T00:53:38;-3.50;99.90
19968;DHT22;10145;49.152;9.282;2023-03-01T00:56:05;-3.50;99.90
19968;DHT22;10145;49.152;9.282;2023-03-01T00:58:31;-3.40;99.90
19968;DHT22;10145;49.152;9.282;2023-03-01T01:00:57;-3.40;99.90
19968;DHT22;10145;49.152;9.282;2023-03-01T01:03:23;-3.40;99.90
19968;DHT22;10145;49.152;9.282;2023-03-01T01:05:51;-3.30;99.90
19968;DHT22;10145;49.152;9.282;2023-03-01T01:08:16;-3.20;99.90
19968;DHT22;10145;49.152;9.282;2023-03-01T01:10:44;-3.20;99.90
19968;DHT22;10145;49.152;9.282;2023-03-01T01:13:10;-3.10;99.90
19968;DHT22;10145;49.152;9.282;2023-03-01T01:15:36;-3.10;99.90
19968;DHT22;10145;49.152;9.282;2023-03-01T01:18:02;-3.00;99.90
19968;DHT22;10145;49.152;9.282;2023-03-01T01:20:27;-3.10;99.90
19968;DHT22;10145;49.152;9.282;2023-03-01T01:22:53;-3.10;99.90
19968;DHT22;10145;49.152;9.282;2023-03-01T01:25:19;-3.20;99.90
19968;DHT22;10145;49.152;9.282;2023-03-01T01:27:45;-3.20;99.90
19968;DHT22;10145;49.152;9.282;2023-03-01T01:30:11;-3.30;99.90
19968;DHT22;10145;49.152;9.282;2023-03-01T01:32:37;-3.30;99.90
19968;DHT22;10145;49.152;9.282;2023-03-01T01:35:02;-3.10;99.90
19968;DHT22;10145;49.152;9.282;2023-03-01T01:37:28;-3.00;99.90
19968;DHT22;10145;49.152;9.282;2023-03-01T01:39:59;-2.90;99.90
19968;DHT22;10145;49.152;9.282;2023-03-01T01:42:26;-2.90;99.90
19968;DHT22;10145;49.152;9.282;2023-03-01T01:45:24;-2.80;99.90
19968;DHT22;10145;49.152;9.282;2023-03-01T01:47:52;-2.80;99.90
19968;DHT22;10145;49.152;9.282;2023-03-01T01:50:19;-2.90;99.90
19968;DHT22;10145;49.152;9.282;2023-03-01T01:52:45;-2.90;99.90
19968;DHT22;10145;49.152;9.282;2023-03-01T01:55:18;-3.00;99.90
19968;DHT22;10145;49.152;9.282;2023-03-01T01:57:49;-3.10;99.90
19968;DHT22;10145;49.152;9.282;2023-03-01T02:00:25;-3.10;99.90
19968;DHT22;10145;49.152;9.282;2023-03-01T02:02:57;-3.10;99.90
19968;DHT22;10145;49.152;9.282;2023-03-01T02:05:38;-3.10;99.90
19968;DHT22;10145;49.152;9.282;2023-03-01T02:08:06;-3.30;99.90
19968;DHT22;10145;49.152;9.282;2023-03-01T02:10:34;-3.30;99.90
19968;DHT22;10145;49.152;9.282;2023-03-01T02:13:01;-3.30;99.90
19968;DHT22;10145;49.152;9.282;2023-03-01T02:15:31;-3.40;99.90
19968;DHT22;10145;49.152;9.282;2023-03-01T02:17:57;-3.50;99.90
19968;DHT22;10145;49.152;9.282;2023-03-01T02:20:47;-3.50;99.90
19968;DHT22;10145;49.152;9.282;2023-03-01T02:23:15;-3.60;99.90
19968;DHT22;10145;49.152;9.282;2023-03-01T02:28:37;-3.60;99.90
19968;DHT22;10145;49.152;9.282;2023-03-01T02:31:06;-3.60;99.90
19968;DHT22;10145;49.152;9.282;2023-03-01T02:33:51;-3.70;99.90
19968;DHT22;10145;49.152;9.282;2023-03-01T02:36:21;-3.60;99.90
19968;DHT22;10145;49.152;9.282;2023-03-01T02:38:50;-3.60;99.90
19968;DHT22;10145;49.152;9.282;2023-03-01T02:41:17;-3.70;99.90
19968;DHT22;10145;49.152;9.282;2023-03-01T02:43:45;-3.60;99.90
19968;DHT22;10145;49.152;9.282;2023-03-01T02:46:20;-3.60;99.90
19968;DHT22;10145;49.152;9.282;2023-03-01T02:48:50;-3.70;99.90
19968;DHT22;10145;49.152;9.282;2023-03-01T02:51:42;-3.70;99.90
19968;DHT22;10145;49.152;9.282;2023-03-01T02:57:18;-3.70;99.90
19968;DHT22;10145;49.152;9.282;2023-03-01T02:59:44;-3.70;99.90
19968;DHT22;10145;49.152;9.282;2023-03-01T03:02:22;-3.70;99.90
19968;DHT22;10145;49.152;9.282;2023-03-01T03:05:05;-3.70;99.90
19968;DHT22;10145;49.152;9.282;2023-03-01T03:07:32;-3.70;99.90
19968;DHT22;10145;49.152;9.282;2023-03-01T03:09:59;-3.70;99.90
19968;DHT22;10145;49.152;9.282;2023-03-01T03:12:25;-3.70;99.90
19968;DHT22;10145;49.152;9.282;2023-03-01T03:14:51;-3.70;99.90
19968;DHT22;10145;49.152;9.282;2023-03-01T03:17:16;-3.70;99.90
19968;DHT22;10145;49.152;9.282;2023-03-01T03:19:42;-3.60;99.90
19968;DHT22;10145;49.152;9.282;2023-03-01T03:22:11;-3.60;99.90
19968;DHT22;10145;49.152;9.282;2023-03-01T03:24:37;-3.70;99.90
19968;DHT22;10145;49.152;9.282;2023-03-01T03:27:04;-3.80;99.90
19968;DHT22;10145;49.152;9.282;2023-03-01T03:29:30;-3.90;99.90
19968;DHT22;10145;49.152;9.282;2023-03-01T03:31:55;-3.90;99.90
19968;DHT22;10145;49.152;9.282;2023-03-01T03:34:21;-3.90;99.90
19968;DHT22;10145;49.152;9.282;2023-03-01T03:36:46;-4.00;99.90
19968;DHT22;10145;49.152;9.282;2023-03-01T03:39:12;-4.00;99.90
19968;DHT22;10145;49.152;9.282;2023-03-01T03:41:37;-4.00;99.90
19968;DHT22;10145;49.152;9.282;2023-03-01T03:44:03;-4.10;99.90
19968;DHT22;10145;49.152;9.282;2023-03-01T03:46:29;-4.20;99.90
19968;DHT22;10145;49.152;9.282;2023-03-01T03:48:54;-4.10;99.90
19968;DHT22;10145;49.152;9.282;2023-03-01T03:51:20;-4.00;99.90
19968;DHT22;10145;49.152;9.282;2023-03-01T03:53:48;-4.00;99.90
19968;DHT22;10145;49.152;9.282;2023-03-01T03:56:14;-4.10;99.90
19968;DHT22;10145;49.152;9.282;2023-03-01T03:58:39;-4.20;99.90
19968;DHT22;10145;49.152;9.282;2023-03-01T04:01:05;-4.00;99.90
19968;DHT22;10145;49.152;9.282;2023-03-01T04:03:32;-3.90;99.90
19968;DHT22;10145;49.152;9.282;2023-03-01T04:05:59;-4.00;99.90
19968;DHT22;10145;49.152;9.282;2023-03-01T04:08:25;-4.00;99.90
19968;DHT22;10145;49.152;9.282;2023-03-01T04:10:53;-4.00;99.90
19968;DHT22;10145;49.152;9.282;2023-03-01T04:13:22;-4.00;99.90
19968;DHT22;10145;49.152;9.282;2023-03-01T04:15:51;-4.00;99.90
19968;DHT22;10145;49.152;9.282;2023-03-01T04:18:18;-4.10;99.90
19968;DHT22;10145;49.152;9.282;2023-03-01T04:20:45;-4.10;99.90
19968;DHT22;10145;49.152;9.282;2023-03-01T04:23:16;-4.10;99.90
19968;DHT22;10145;49.152;9.282;2023-03-01T04:25:53;-4.10;99.90
19968;DHT22;10145;49.152;9.282;2023-03-01T04:28:28;-4.00;99.90
19968;DHT22;10145;49.152;9.282;2023-03-01T04:30:56;-4.00;99.90
19968;DHT22;10145;49.152;9.282;2023-03-01T04:33:23;-4.10;99.90
19968;DHT22;10145;49.152;9.282;2023-03-01T04:35:49;-4.10;99.90
19968;DHT22;10145;49.152;9.282;2023-03-01T04:38:15;-4.10;99.90
19968;DHT22;10145;49.152;9.282;2023-03-01T04:40:41;-4.00;99.90
19968;DHT22;10145;49.152;9.282;2023-03-01T04:43:09;-4.00;99.90
19968;DHT22;10145;49.152;9.282;2023-03-01T04:45:35;-4.00;99.90
19968;DHT22;10145;49.152;9.282;2023-03-01T04:48:01;-4.00;99.90
19968;DHT22;10145;49.152;9.282;2023-03-01T04:50:27;-3.90;99.90
19968;DHT22;10145;49.152;9.282;2023-03-01T04:52:53;-3.90;99.90
19968;DHT22;10145;49.152;9.282;2023-03-01T04:55:19;-3.90;99.90
19968;DHT22;10145;49.152;9.282;2023-03-01T04:57:45;-3.80;99.90
19968;DHT22;10145;49.152;9.282;2023-03-01T05:00:12;-3.90;99.90
19968;DHT22;10145;49.152;9.282;2023-03-01T05:02:56;-3.90;99.90
19968;DHT22;10145;49.152;9.282;2023-03-01T05:05:28;-3.90;99.90
19968;DHT22;10145;49.152;9.282;2023-03-01T05:08:01;-3.90;99.90
19968;DHT22;10145;49.152;9.282;2023-03-01T05:10:29;-3.80;99.90
19968;DHT22;10145;49.152;9.282;2023-03-01T05:12:55;-3.80;99.90
19968;DHT22;10145;49.152;9.282;2023-03-01T05:15:23;-3.80;99.90
19968;DHT22;10145;49.152;9.282;2023-03-01T05:17:51;-3.70;99.90
19968;DHT22;10145;49.152;9.282;2023-03-01T05:20:17;-3.60;99.90
19968;DHT22;10145;49.152;9.282;2023-03-01T05:22:43;-3.60;99.90
19968;DHT22;10145;49.152;9.282;2023-03-01T05:25:09;-3.60;99.90
19968;DHT22;10145;49.152;9.282;2023-03-01T05:27:35;-3.50;99.90
19968;DHT22;10145;49.152;9.282;2023-03-01T05:30:01;-3.50;99.90
19968;DHT22;10145;49.152;9.282;2023-03-01T05:32:48;-3.50;99.90
19968;DHT22;10145;49.152;9.282;2023-03-01T05:35:16;-3.60;99.90
19968;DHT22;10145;49.152;9.282;2023-03-01T05:37:43;-3.60;99.90
19968;DHT22;10145;49.152;9.282;2023-03-01T05:40:12;-3.70;99.90
19968;DHT22;10145;49.152;9.282;2023-03-01T05:42:52;-3.80;99.90
19968;DHT22;10145;49.152;9.282;2023-03-01T05:45:23;-3.80;99.90
19968;DHT22;10145;49.152;9.282;2023-03-01T05:47:49;-3.90;99.90
19968;DHT22;10145;49.152;9.282;2023-03-01T05:50:21;-3.90;99.90
19968;DHT22;10145;49.152;9.282;2023-03-01T05:52:51;-3.80;99.90
19968;DHT22;10145;49.152;9.282;2023-03-01T05:55:19;-3.90;99.90
19968;DHT22;10145;49.152;9.282;2023-03-01T05:57:45;-3.80;99.90
19968;DHT22;10145;49.152;9.282;2023-03-01T06:00:12;-3.90;99.90
19968;DHT22;10145;49.152;9.282;2023-03-01T06:02:38;-4.00;99.90
19968;DHT22;10145;49.152;9.282;2023-03-01T06:05:06;-4.00;99.90
19968;DHT22;10145;49.152;9.282;2023-03-01T06:07:32;-4.00;99.90
19968;DHT22;10145;49.152;9.282;2023-03-01T06:09:58;-4.00;99.90
19968;DHT22;10145;49.152;9.282;2023-03-01T06:12:23;-4.00;99.90
19968;DHT22;10145;49.152;9.282;2023-03-01T06:14:49;-3.90;99.90
19968;DHT22;10145;49.152;9.282;2023-03-01T06:17:14;-3.90;99.90
19968;DHT22;10145;49.152;9.282;2023-03-01T06:19:40;-3.90;99.90
19968;DHT22;10145;49.152;9.282;2023-03-01T06:22:05;-3.80;99.90
19968;DHT22;10145;49.152;9.282;2023-03-01T06:24:31;-3.90;99.90
19968;DHT22;10145;49.152;9.282;2023-03-01T06:26:57;-3.70;99.90
19968;DHT22;10145;49.152;9.282;2023-03-01T06:29:22;-3.80;99.90
19968;DHT22;10145;49.152;9.282;2023-03-01T06:31:48;-3.80;99.90
19968;DHT22;10145;49.152;9.282;2023-03-01T06:34:14;-3.80;99.90
19968;DHT22;10145;49.152;9.282;2023-03-01T06:36:40;-3.80;99.90
19968;DHT22;10145;49.152;9.282;2023-03-01T06:39:06;-3.80;99.90
19968;DHT22;10145;49.152;9.282;2023-03-01T06:41:32;-3.80;99.90
19968;DHT22;10145;49.152;9.282;2023-03-01T06:43:59;-3.80;99.90
19968;DHT22;10145;49.152;9.282;2023-03-01T06:46:25;-3.80;99.90
19968;DHT22;10145;49.152;9.282;2023-03-01T06:48:51;-3.70;99.90
19968;DHT22;10145;49.152;9.282;2023-03-01T06:51:16;-3.60;99.90
19968;DHT22;10145;49.152;9.282;2023-03-01T06:53:42;-3.60;99.90
19968;DHT22;10145;49.152;9.282;2023-03-01T06:56:07;-3.60;99.90
19968;DHT22;10145;49.152;9.282;2023-03-01T06:58:33;-3.50;99.90
19968;DHT22;10145;49.152;9.282;2023-03-01T07:00:58;-3.40;99.90
19968;DHT22;10145;49.152;9.282;2023-03-01T07:03:24;-3.30;99.90
19968;DHT22;10145;49.152;9.282;2023-03-01T07:05:50;-3.30;99.90
19968;DHT22;10145;49.152;9.282;2023-03-01T07:08:18;-3.20;99.90
19968;DHT22;10145;49.152;9.282;2023-03-01T07:10:44;-3.20;99.90
19968;DHT22;10145;49.152;9.282;2023-03-01T07:13:10;-3.10;99.90
19968;DHT22;10145;49.152;9.282;2023-03-01T07:15:35;-3.10;99.90
19968;DHT22;10145;49.152;9.282;2023-03-01T07:18:01;-3.00;99.90
19968;DHT22;10145;49.152;9.282;2023-03-01T07:20:26;-2.90;99.90
19968;DHT22;10145;49.152;9.282;2023-03-01T07:22:53;-2.80;99.90
19968;DHT22;10145;49.152;9.282;2023-03-01T07:25:19;-2.70;99.90
19968;DHT22;10145;49.152;9.282;2023-03-01T07:27:52;-2.50;99.90
19968;DHT22;10145;49.152;9.282;2023-03-01T07:30:18;-2.40;99.90
19968;DHT22;10145;49.152;9.282;2023-03-01T07:32:44;-2.10;99.90
19968;DHT22;10145;49.152;9.282;2023-03-01T07:35:11;-1.90;99.90
19968;DHT22;10145;49.152;9.282;2023-03-01T07:37:36;-1.70;99.90
19968;DHT22;10145;49.152;9.282;2023-03-01T07:40:02;-1.50;99.90
19968;DHT22;10145;49.152;9.282;2023-03-01T07:42:28;-1.30;99.90
19968;DHT22;10145;49.152;9.282;2023-03-01T07:44:53;-1.20;99.90
19968;DHT22;10145;49.152;9.282;2023-03-01T07:47:19;-1.00;99.90
19968;DHT22;10145;49.152;9.282;2023-03-01T07:49:44;-0.90;99.90
19968;DHT22;10145;49.152;9.282;2023-03-01T07:52:11;-0.80;99.90
19968;DHT22;10145;49.152;9.282;2023-03-01T07:54:37;-0.70;99.90
19968;DHT22;10145;49.152;9.282;2023-03-01T07:57:03;-0.60;99.90
19968;DHT22;10145;49.152;9.282;2023-03-01T07:59:28;-0.50;99.90
19968;DHT22;10145;49.152;9.282;2023-03-01T08:01:56;-0.50;99.90
19968;DHT22;10145;49.152;9.282;2023-03-01T08:04:22;-0.40;99.90
19968;DHT22;10145;49.152;9.282;2023-03-01T08:06:50;-0.40;99.90
19968;DHT22;10145;49.152;9.282;2023-03-01T08:09:16;-0.30;99.90
19968;DHT22;10145;49.152;9.282;2023-03-01T08:11:41;-0.20;99.90
19968;DHT22;10145;49.152;9.282;2023-03-01T08:14:07;-0.10;99.90
19968;DHT22;10145;49.152;9.282;2023-03-01T08:16:32;0.00;99.90
19968;DHT22;10145;49.152;9.282;2023-03-01T08:19:07;0.00;99.90
19968;DHT22;10145;49.152;9.282;2023-03-01T08:21:33;0.10;99.90
19968;DHT22;10145;49.152;9.282;2023-03-01T08:24:01;0.20;99.90
19968;DHT22;10145;49.152;9.282;2023-03-01T08:26:27;0.20;99.90
19968;DHT22;10145;49.152;9.282;2023-03-01T08:28:52;0.40;99.90
19968;DHT22;10145;49.152;9.282;2023-03-01T08:31:24;0.50;99.90
19968;DHT22;10145;49.152;9.282;2023-03-01T08:33:53;0.50;99.90
19968;DHT22;10145;49.152;9.282;2023-03-01T08:36:34;0.60;99.90
19968;DHT22;10145;49.152;9.282;2023-03-01T08:39:00;0.60;99.90
19968;DHT22;10145;49.152;9.282;2023-03-01T08:41:25;0.70;99.90
19968;DHT22;10145;49.152;9.282;2023-03-01T08:43:51;0.80;99.90
19968;DHT22;10145;49.152;9.282;2023-03-01T08:46:18;0.90;99.90
19968;DHT22;10145;49.152;9.282;2023-03-01T08:48:43;1.00;99.90
19968;DHT22;10145;49.152;9.282;2023-03-01T08:51:11;1.10;99.90
19968;DHT22;10145;49.152;9.282;2023-03-01T08:53:38;1.20;99.90
19968;DHT22;10145;49.152;9.282;2023-03-01T08:56:03;1.30;99.90
19968;DHT22;10145;49.152;9.282;2023-03-01T08:58:29;1.40;99.90
19968;DHT22;10145;49.152;9.282;2023-03-01T09:00:55;1.40;99.90
19968;DHT22;10145;49.152;9.282;2023-03-01T09:03:22;1.50;99.90
19968;DHT22;10145;49.152;9.282;2023-03-01T09:05:48;1.60;99.90
19968;DHT22;10145;49.152;9.282;2023-03-01T09:08:16;1.70;99.90
19968;DHT22;10145;49.152;9.282;2023-03-01T09:10:41;1.80;99.90
19968;DHT22;10145;49.152;9.282;2023-03-01T09:13:07;1.80;99.90
19968;DHT22;10145;49.152;9.282;2023-03-01T09:15:33;1.80;99.90
19968;DHT22;10145;49.152;9.282;2023-03-01T09:17:59;1.90;99.90
19968;DHT22;10145;49.152;9.282;2023-03-01T09:20:25;2.00;99.90
19968;DHT22;10145;49.152;9.282;2023-03-01T09:22:50;2.20;99.90
19968;DHT22;10145;49.152;9.282;2023-03-01T09:25:16;2.20;99.90
19968;DHT22;10145;49.152;9.282;2023-03-01T09:27:41;2.30;99.90
19968;DHT22;10145;49.152;9.282;2023-03-01T09:30:07;2.30;99.90
19968;DHT22;10145;49.152;9.282;2023-03-01T09:32:33;2.40;99.90
19968;DHT22;10145;49.152;9.282;2023-03-01T09:34:59;2.40;99.90
19968;DHT22;10145;49.152;9.282;2023-03-01T09:37:31;2.50;99.90
19968;DHT22;10145;49.152;9.282;2023-03-01T09:39:57;2.60;99.90
19968;DHT22;10145;49.152;9.282;2023-03-01T09:42:23;2.80;99.90
19968;DHT22;10145;49.152;9.282;2023-03-01T09:44:59;2.80;99.90
19968;DHT22;10145;49.152;9.282;2023-03-01T09:47:34;3.00;99.90
19968;DHT22;10145;49.152;9.282;2023-03-01T09:50:06;3.10;99.90
19968;DHT22;10145;49.152;9.282;2023-03-01T09:52:43;3.20;99.90
19968;DHT22;10145;49.152;9.282;2023-03-01T09:55:14;3.20;99.90
19968;DHT22;10145;49.152;9.282;2023-03-01T10:00:14;3.40;99.90
19968;DHT22;10145;49.152;9.282;2023-03-01T10:02:46;3.50;99.90
19968;DHT22;10145;49.152;9.282;2023-03-01T10:10:37;3.80;99.90
19968;DHT22;10145;49.152;9.282;2023-03-01T10:15:44;3.90;99.90
19968;DHT22;10145;49.152;9.282;2023-03-01T10:18:17;3.90;99.90
19968;DHT22;10145;49.152;9.282;2023-03-01T10:21:05;4.00;99.90
19968;DHT22;10145;49.152;9.282;2023-03-01T10:23:34;4.20;99.90
19968;DHT22;10145;49.152;9.282;2023-03-01T10:26:17;4.30;99.90
19968;DHT22;10145;49.152;9.282;2023-03-01T10:31:25;4.60;99.90
19968;DHT22;10145;49.152;9.282;2023-03-01T10:33:53;4.50;99.90
19968;DHT22;10145;49.152;9.282;2023-03-01T10:36:21;4.60;99.90
19968;DHT22;10145;49.152;9.282;2023-03-01T10:38:55;4.60;99.90
19968;DHT22;10145;49.152;9.282;2023-03-01T10:41:24;4.70;99.90
19968;DHT22;10145;49.152;9.282;2023-03-01T10:43:57;4.80;99.90
19968;DHT22;10145;49.152;9.282;2023-03-01T10:49:18;4.90;99.90
19968;DHT22;10145;49.152;9.282;2023-03-01T10:51:46;5.10;99.90
19968;DHT22;10145;49.152;9.282;2023-03-01T10:56:57;5.30;99.80
19968;DHT22;10145;49.152;9.282;2023-03-01T10:59:27;5.40;99.40
19968;DHT22;10145;49.152;9.282;2023-03-01T11:04:29;5.40;99.30
19968;DHT22;10145;49.152;9.282;2023-03-01T11:06:59;5.50;98.80
19968;DHT22;10145;49.152;9.282;2023-03-01T11:09:25;5.50;98.90
19968;DHT22;10145;49.152;9.282;2023-03-01T11:11:57;5.50;99.20
19968;DHT22;10145;49.152;9.282;2023-03-01T11:14:35;5.60;99.90
19968;DHT22;10145;49.152;9.282;2023-03-01T11:19:29;5.70;99.50
19968;DHT22;10145;49.152;9.282;2023-03-01T11:22:14;5.80;98.70
19968;DHT22;10145;49.152;9.282;2023-03-01T11:24:53;5.80;98.90
19968;DHT22;10145;49.152;9.282;2023-03-01T11:27:23;5.90;98.70
19968;DHT22;10145;49.152;9.282;2023-03-01T11:29:57;6.00;99.20
19968;DHT22;10145;49.152;9.282;2023-03-01T11:32:27;6.00;98.60
19968;DHT22;10145;49.152;9.282;2023-03-01T11:35:13;6.00;98.80
19968;DHT22;10145;49.152;9.282;2023-03-01T11:37:50;6.00;98.50
19968;DHT22;10145;49.152;9.282;2023-03-01T11:40:26;6.10;98.30
19968;DHT22;10145;49.152;9.282;2023-03-01T11:48:31;6.50;98.10
19968;DHT22;10145;49.152;9.282;2023-03-01T11:51:04;6.70;98.20
19968;DHT22;10145;49.152;9.282;2023-03-01T11:56:50;6.80;96.50
19968;DHT22;10145;49.152;9.282;2023-03-01T12:07:46;6.90;96.80
19968;DHT22;10145;49.152;9.282;2023-03-01T12:10:23;7.00;96.60
19968;DHT22;10145;49.152;9.282;2023-03-01T12:18:30;7.20;95.30
19968;DHT22;10145;49.152;9.282;2023-03-01T12:21:47;7.30;94.80
19968;DHT22;10145;49.152;9.282;2023-03-01T12:26:58;7.90;95.30
19968;DHT22;10145;49.152;9.282;2023-03-01T12:29:47;7.80;94.60
19968;DHT22;10145;49.152;9.282;2023-03-01T12:32:49;7.80;94.30
19968;DHT22;10145;49.152;9.282;2023-03-01T12:38:25;7.70;94.50
19968;DHT22;10145;49.152;9.282;2023-03-01T12:43:51;7.90;94.20
19968;DHT22;10145;49.152;9.282;2023-03-01T12:49:28;8.10;94.30
19968;DHT22;10145;49.152;9.282;2023-03-01T12:52:06;8.00;93.80
19968;DHT22;10145;49.152;9.282;2023-03-01T12:54:36;8.00;93.40
19968;DHT22;10145;49.152;9.282;2023-03-01T13:00:09;8.50;93.80
19968;DHT22;10145;49.152;9.282;2023-03-01T13:03:00;8.60;93.20
19968;DHT22;10145;49.152;9.282;2023-03-01T13:05:51;8.20;93.50
19968;DHT22;10145;49.152;9.282;2023-03-01T13:11:05;8.60;92.50
19968;DHT22;10145;49.152;9.282;2023-03-01T13:13:32;8.60;93.40
19968;DHT22;10145;49.152;9.282;2023-03-01T13:15:57;8.70;93.00
19968;DHT22;10145;49.152;9.282;2023-03-01T13:18:43;8.70;92.50
19968;DHT22;10145;49.152;9.282;2023-03-01T13:21:08;9.00;92.30
19968;DHT22;10145;49.152;9.282;2023-03-01T13:23:37;8.90;91.40
19968;DHT22;10145;49.152;9.282;2023-03-01T13:28:48;8.30;92.00
19968;DHT22;10145;49.152;9.282;2023-03-01T13:33:44;8.60;92.00
19968;DHT22;10145;49.152;9.282;2023-03-01T13:36:11;8.70;91.90
19968;DHT22;10145;49.152;9.282;2023-03-01T13:38:48;8.70;91.40
19968;DHT22;10145;49.152;9.282;2023-03-01T13:46:53;8.80;91.20
19968;DHT22;10145;49.152;9.282;2023-03-01T13:49:23;8.80;91.40
19968;DHT22;10145;49.152;9.282;2023-03-01T13:51:51;8.80;91.10
19968;DHT22;10145;49.152;9.282;2023-03-01T13:54:25;8.60;90.60
19968;DHT22;10145;49.152;9.282;2023-03-01T13:56:51;8.60;91.00
19968;DHT22;10145;49.152;9.282;2023-03-01T13:59:20;8.60;91.20
19968;DHT22;10145;49.152;9.282;2023-03-01T14:01:52;8.60;91.30
19968;DHT22;10145;49.152;9.282;2023-03-01T14:04:27;8.50;91.30
19968;DHT22;10145;49.152;9.282;2023-03-01T14:09:38;8.60;91.60
19968;DHT22;10145;49.152;9.282;2023-03-01T14:12:23;8.60;91.00
19968;DHT22;10145;49.152;9.282;2023-03-01T14:20:27;8.50;90.70
19968;DHT22;10145;49.152;9.282;2023-03-01T14:22:55;8.50;90.60
19968;DHT22;10145;49.152;9.282;2023-03-01T14:25:33;8.40;91.20
19968;DHT22;10145;49.152;9.282;2023-03-01T14:28:24;8.60;90.80
19968;DHT22;10145;49.152;9.282;2023-03-01T14:30:53;8.50;91.00
19968;DHT22;10145;49.152;9.282;2023-03-01T14:33:34;8.60;91.20
19968;DHT22;10145;49.152;9.282;2023-03-01T14:36:04;8.70;92.30
19968;DHT22;10145;49.152;9.282;2023-03-01T14:38:38;8.70;90.60
19968;DHT22;10145;49.152;9.282;2023-03-01T14:41:17;8.50;90.20
19968;DHT22;10145;49.152;9.282;2023-03-01T14:43:56;8.40;91.20
19968;DHT22;10145;49.152;9.282;2023-03-01T14:46:26;8.50;91.00
19968;DHT22;10145;49.152;9.282;2023-03-01T14:48:57;8.60;90.40
19968;DHT22;10145;49.152;9.282;2023-03-01T14:51:26;8.60;90.80
19968;DHT22;10145;49.152;9.282;2023-03-01T14:53:52;8.60;90.20
19968;DHT22;10145;49.152;9.282;2023-03-01T14:56:18;8.40;90.60
19968;DHT22;10145;49.152;9.282;2023-03-01T14:58:44;8.60;91.10
19968;DHT22;10145;49.152;9.282;2023-03-01T15:01:15;8.70;90.50
19968;DHT22;10145;49.152;9.282;2023-03-01T15:03:44;8.60;90.50
19968;DHT22;10145;49.152;9.282;2023-03-01T15:06:15;8.70;90.50
19968;DHT22;10145;49.152;9.282;2023-03-01T15:08:44;8.80;89.70
19968;DHT22;10145;49.152;9.282;2023-03-01T15:13:40;9.00;90.40
19968;DHT22;10145;49.152;9.282;2023-03-01T15:16:18;8.90;88.80
19968;DHT22;10145;49.152;9.282;2023-03-01T15:18:54;8.90;89.40
19968;DHT22;10145;49.152;9.282;2023-03-01T15:21:24;9.00;90.10
19968;DHT22;10145;49.152;9.282;2023-03-01T15:26:42;9.10;89.90
19968;DHT22;10145;49.152;9.282;2023-03-01T15:29:19;9.10;88.90
19968;DHT22;10145;49.152;9.282;2023-03-01T15:36:53;11.80;83.00
19968;DHT22;10145;49.152;9.282;2023-03-01T15:39:41;12.20;81.30
19968;DHT22;10145;49.152;9.282;2023-03-01T15:42:12;13.60;78.20
19968;DHT22;10145;49.152;9.282;2023-03-01T15:44:40;14.60;72.90
19968;DHT22;10145;49.152;9.282;2023-03-01T15:47:30;14.60;71.00
19968;DHT22;10145;49.152;9.282;2023-03-01T15:49:57;14.00;71.60
19968;DHT22;10145;49.152;9.282;2023-03-01T15:52:40;13.60;73.00
19968;DHT22;10145;49.152;9.282;2023-03-01T15:55:15;14.20;70.80
19968;DHT22;10145;49.152;9.282;2023-03-01T15:57:41;14.30;70.00
19968;DHT22;10145;49.152;9.282;2023-03-01T16:00:10;14.00;70.10
19968;DHT22;10145;49.152;9.282;2023-03-01T16:02:40;13.50;70.80
19968;DHT22;10145;49.152;9.282;2023-03-01T16:05:22;11.90;73.20
19968;DHT22;10145;49.152;9.282;2023-03-01T16:07:48;10.70;77.40
19968;DHT22;10145;49.152;9.282;2023-03-01T16:10:14;10.10;79.90
19968;DHT22;10145;49.152;9.282;2023-03-01T16:12:39;9.40;81.70
19968;DHT22;10145;49.152;9.282;2023-03-01T16:15:20;9.00;83.90
19968;DHT22;10145;49.152;9.282;2023-03-01T16:17:46;8.60;86.10
19968;DHT22;10145;49.152;9.282;2023-03-01T16:20:12;8.20;87.20
19968;DHT22;10145;49.152;9.282;2023-03-01T16:22:43;7.90;88.50
19968;DHT22;10145;49.152;9.282;2023-03-01T16:25:10;7.70;89.60
19968;DHT22;10145;49.152;9.282;2023-03-01T16:27:36;7.60;90.10
19968;DHT22;10145;49.152;9.282;2023-03-01T16:30:03;7.70;90.00
19968;DHT22;10145;49.152;9.282;2023-03-01T16:32:29;7.90;89.70
19968;DHT22;10145;49.152;9.282;2023-03-01T16:34:54;7.90;89.20
19968;DHT22;10145;49.152;9.282;2023-03-01T16:37:20;7.60;89.70
19968;DHT22;10145;49.152;9.282;2023-03-01T16:39:47;7.20;90.80
19968;DHT22;10145;49.152;9.282;2023-03-01T16:42:15;6.90;90.90
19968;DHT22;10145;49.152;9.282;2023-03-01T16:44:41;6.70;91.30
19968;DHT22;10145;49.152;9.282;2023-03-01T16:47:07;6.60;91.70
19968;DHT22;10145;49.152;9.282;2023-03-01T16:49:32;6.40;91.80
19968;DHT22;10145;49.152;9.282;2023-03-01T16:51:58;6.20;92.50
19968;DHT22;10145;49.152;9.282;2023-03-01T16:54:24;6.00;92.90
19968;DHT22;10145;49.152;9.282;2023-03-01T16:56:50;5.90;93.30
19968;DHT22;10145;49.152;9.282;2023-03-01T16:59:15;5.80;93.70
19968;DHT22;10145;49.152;9.282;2023-03-01T17:01:43;5.70;93.90
19968;DHT22;10145;49.152;9.282;2023-03-01T17:04:12;5.50;94.00
19968;DHT22;10145;49.152;9.282;2023-03-01T17:06:38;5.40;94.30
19968;DHT22;10145;49.152;9.282;2023-03-01T17:09:03;5.30;94.50
19968;DHT22;10145;49.152;9.282;2023-03-01T17:11:29;5.20;94.80
19968;DHT22;10145;49.152;9.282;2023-03-01T17:13:55;5.20;94.80
19968;DHT22;10145;49.152;9.282;2023-03-01T17:16:21;5.10;94.90
19968;DHT22;10145;49.152;9.282;2023-03-01T17:18:47;4.90;95.30
19968;DHT22;10145;49.152;9.282;2023-03-01T17:21:13;4.70;95.50
19968;DHT22;10145;49.152;9.282;2023-03-01T17:23:41;4.50;96.00
19968;DHT22;10145;49.152;9.282;2023-03-01T17:26:08;4.40;96.40
19968;DHT22;10145;49.152;9.282;2023-03-01T17:28:36;4.40;96.50
19968;DHT22;10145;49.152;9.282;2023-03-01T17:31:03;4.30;96.70